createdAt,value
2022-09-04T00:00:28.553Z,15.99
2022-09-04T00:03:38.883Z,16.01
2022-09-04T00:06:54.671Z,15.91
2022-09-04T00:10:02.400Z,15.96
2022-09-04T00:13:27.559Z,15.99
2022-09-04T00:16:51.253Z,15.96
2022-09-04T00:19:58.668Z,15.88
2022-09-04T00:23:13.752Z,15.79
2022-09-04T00:26:36.999Z,15.73
2022-09-04T00:29:59.837Z,15.61
2022-09-04T00:33:18.141Z,15.53
2022-09-04T00:36:23.950Z,15.51
2022-09-04T00:39:38.380Z,15.47
2022-09-04T00:42:52.298Z,15.50
2022-09-04T00:46:19.310Z,15.50
2022-09-04T00:50:03.808Z,15.43
2022-09-04T00:53:30.576Z,15.35
2022-09-04T00:57:04.761Z,15.30
2022-09-04T01:00:12.661Z,15.27
2022-09-04T01:03:38.442Z,15.26
2022-09-04T01:07:09.359Z,15.27
2022-09-04T01:10:17.183Z,15.24
2022-09-04T01:13:41.678Z,15.16
2022-09-04T01:16:50.924Z,15.20
2022-09-04T01:20:09.672Z,15.20
2022-09-04T01:23:49.212Z,15.25
2022-09-04T01:27:08.990Z,15.33
2022-09-04T01:30:19.742Z,15.34
2022-09-04T01:33:36.863Z,15.34
2022-09-04T01:36:45.541Z,15.33
2022-09-04T01:39:59.153Z,15.27
2022-09-04T01:43:15.826Z,15.19
2022-09-04T01:46:23.853Z,15.26
2022-09-04T01:49:40.787Z,15.20
2022-09-04T01:52:56.950Z,15.19
2022-09-04T01:56:17.702Z,15.15
2022-09-04T01:59:53.710Z,15.13
2022-09-04T02:03:16.225Z,15.12
2022-09-04T02:06:47.566Z,15.09
2022-09-04T02:09:49.527Z,15.01
2022-09-04T02:13:14.057Z,14.99
2022-09-04T02:16:28.748Z,14.90
2022-09-04T02:20:22.343Z,14.86
2022-09-04T02:23:50.486Z,14.81
2022-09-04T02:27:07.093Z,14.82
2022-09-04T02:30:11.909Z,14.86
2022-09-04T02:33:46.914Z,14.89
2022-09-04T02:37:03.369Z,14.88
2022-09-04T02:40:14.238Z,14.89
2022-09-04T02:43:37.445Z,14.92
2022-09-04T02:47:05.497Z,14.87
2022-09-04T02:50:32.736Z,14.85
2022-09-04T02:53:54.757Z,14.83
2022-09-04T02:57:16.097Z,14.89
2022-09-04T03:00:21.257Z,14.90
2022-09-04T03:03:39.641Z,14.94
2022-09-04T03:06:49.384Z,14.92
2022-09-04T03:10:04.639Z,14.90
2022-09-04T03:13:06.604Z,14.91
2022-09-04T03:16:32.678Z,14.89
2022-09-04T03:19:51.123Z,14.85
2022-09-04T03:23:13.578Z,14.90
2022-09-04T03:26:28.359Z,14.86
2022-09-04T03:29:46.135Z,14.72
2022-09-04T03:33:02.339Z,14.67
2022-09-04T03:36:22.776Z,14.67
2022-09-04T03:39:43.659Z,14.76
2022-09-04T03:43:22.245Z,14.74
2022-09-04T03:46:37.618Z,14.77
2022-09-04T03:49:57.499Z,14.73
2022-09-04T03:53:40.666Z,14.74
2022-09-04T03:56:55.708Z,14.70
2022-09-04T04:00:03.527Z,14.61
2022-09-04T04:03:23.179Z,14.60
2022-09-04T04:06:40.536Z,14.57
2022-09-04T04:10:03.325Z,14.54
2022-09-04T04:13:44.438Z,14.44
2022-09-04T04:17:23.646Z,14.34
2022-09-04T04:20:37.821Z,14.26
2022-09-04T04:23:58.601Z,14.20
2022-09-04T04:27:40.753Z,14.20
2022-09-04T04:30:48.166Z,14.15
2022-09-04T04:34:02.650Z,14.16
2022-09-04T04:37:15.524Z,14.10
2022-09-04T04:40:45.360Z,14.10
2022-09-04T04:43:54.719Z,14.07
2022-09-04T04:47:17.247Z,14.00
2022-09-04T04:50:31.639Z,13.97
2022-09-04T04:53:46.702Z,13.89
2022-09-04T04:56:57.327Z,13.93
2022-09-04T05:00:11.386Z,13.90
2022-09-04T05:03:37.569Z,13.86
2022-09-04T05:06:54.707Z,13.88
2022-09-04T05:10:03.029Z,14.00
2022-09-04T05:13:25.504Z,14.02
2022-09-04T05:16:35.836Z,14.04
2022-09-04T05:20:14.677Z,14.08
2022-09-04T05:23:50.530Z,14.11
2022-09-04T05:27:03.586Z,14.15
2022-09-04T05:30:16.777Z,14.16
2022-09-04T05:33:45.775Z,14.20
2022-09-04T05:37:16.896Z,14.29
2022-09-04T05:40:33.517Z,14.41
2022-09-04T05:44:04.837Z,14.49
2022-09-04T05:47:34.698Z,14.65
2022-09-04T05:50:39.473Z,14.74
2022-09-04T05:54:01.076Z,14.81
2022-09-04T05:57:24.294Z,14.92
2022-09-04T06:00:37.384Z,15.00
2022-09-04T06:04:01.343Z,15.07
2022-09-04T06:07:19.565Z,15.16
2022-09-04T06:10:30.364Z,15.31
2022-09-04T06:14:02.559Z,15.33
2022-09-04T06:17:36.389Z,15.47
2022-09-04T06:20:41.397Z,15.62
2022-09-04T06:23:48.779Z,15.74
2022-09-04T06:27:17.155Z,15.99
2022-09-04T06:30:19.402Z,16.22
2022-09-04T06:33:47.539Z,16.47
2022-09-04T06:37:17.480Z,16.62
2022-09-04T06:40:57.864Z,16.59
2022-09-04T06:44:22.952Z,16.67
2022-09-04T06:47:39.473Z,16.85
2022-09-04T06:51:00.845Z,17.22
2022-09-04T06:54:14.265Z,17.63
2022-09-04T06:57:42.809Z,17.87
2022-09-04T07:01:09.731Z,17.83
2022-09-04T07:04:33.005Z,17.80
2022-09-04T07:07:52.608Z,18.36
2022-09-04T07:11:23.590Z,19.73
2022-09-04T07:15:16.129Z,21.20
2022-09-04T07:18:55.766Z,21.82
2022-09-04T07:22:28.565Z,22.51
2022-09-04T07:25:45.047Z,22.33
2022-09-04T07:29:11.149Z,23.68
2022-09-04T07:32:18.318Z,23.96
2022-09-04T07:35:35.132Z,23.22
2022-09-04T07:38:50.575Z,23.52
2022-09-04T07:42:09.760Z,23.62
2022-09-04T07:45:21.935Z,23.99
2022-09-04T07:48:32.178Z,23.45
2022-09-04T07:51:41.371Z,24.08
2022-09-04T07:54:57.672Z,24.76
2022-09-04T07:58:32.309Z,24.80
2022-09-04T08:01:55.626Z,24.07
2022-09-04T08:05:12.723Z,23.18
2022-09-04T08:08:14.698Z,22.27
2022-09-04T08:11:41.354Z,22.46
2022-09-04T08:14:54.033Z,23.16
2022-09-04T08:18:13.054Z,24.35
2022-09-04T08:21:28.490Z,24.69
2022-09-04T08:24:30.470Z,25.72
2022-09-04T08:28:09.618Z,27.00
2022-09-04T08:31:31.702Z,26.94
2022-09-04T08:34:51.788Z,26.11
2022-09-04T08:38:18.287Z,25.44
2022-09-04T08:41:38.870Z,26.52
2022-09-04T08:45:23.566Z,25.61
2022-09-04T08:48:46.093Z,27.17
2022-09-04T08:52:19.185Z,28.04
2022-09-04T08:55:42.165Z,27.83
2022-09-04T08:59:12.599Z,28.06
2022-09-04T09:02:55.976Z,28.95
2022-09-04T09:06:09.835Z,28.97
2022-09-04T09:09:41.446Z,27.68
2022-09-04T09:13:29.902Z,27.07
2022-09-04T09:16:34.788Z,28.97
2022-09-04T09:19:47.168Z,28.70
2022-09-04T09:23:17.883Z,28.55
2022-09-04T09:26:24.419Z,28.99
2022-09-04T09:29:52.268Z,28.37
2022-09-04T09:33:49.251Z,28.43
2022-09-04T09:37:13.624Z,28.36
2022-09-04T09:40:36.174Z,27.49
2022-09-04T09:44:11.480Z,27.27
2022-09-04T09:47:35.900Z,27.23
2022-09-04T09:50:56.228Z,27.07
2022-09-04T09:54:31.921Z,27.37
2022-09-04T09:57:34.160Z,27.68
2022-09-04T10:00:47.373Z,27.99
2022-09-04T10:04:01.503Z,27.40
2022-09-04T10:07:12.764Z,27.52
2022-09-04T10:10:40.585Z,28.18
2022-09-04T10:14:09.770Z,28.03
2022-09-04T10:17:30.100Z,28.49
2022-09-04T10:20:50.858Z,28.26
2022-09-04T10:24:17.020Z,28.89
2022-09-04T10:27:52.421Z,28.58
2022-09-04T10:31:30.587Z,28.48
2022-09-04T10:34:40.682Z,27.97
2022-09-04T10:38:19.514Z,28.18
2022-09-04T10:41:56.275Z,28.30
2022-09-04T10:45:21.665Z,28.57
2022-09-04T10:48:39.825Z,28.80
2022-09-04T10:51:54.843Z,29.31
2022-09-04T10:55:40.248Z,28.31
2022-09-04T10:58:54.057Z,28.53
2022-09-04T11:02:27.041Z,28.81
2022-09-04T11:05:55.842Z,28.49
2022-09-04T11:09:20.156Z,29.51
2022-09-04T11:12:34.232Z,29.06
2022-09-04T11:15:50.837Z,28.46
2022-09-04T11:19:15.625Z,28.49
2022-09-04T11:23:04.315Z,28.09
2022-09-04T11:26:21.580Z,27.77
2022-09-04T11:29:45.500Z,28.13
2022-09-04T11:33:32.171Z,28.19
2022-09-04T11:36:46.236Z,28.44
2022-09-04T11:40:11.857Z,28.30
2022-09-04T11:43:35.195Z,28.43
2022-09-04T11:47:03.607Z,29.22
2022-09-04T11:50:13.784Z,29.17
2022-09-04T11:53:36.462Z,29.18
2022-09-04T11:56:49.483Z,28.66
2022-09-04T12:00:08.405Z,29.03
2022-09-04T12:03:46.241Z,27.99
2022-09-04T12:07:42.570Z,27.95
2022-09-04T12:11:03.635Z,27.42
2022-09-04T12:14:30.263Z,27.32
2022-09-04T12:17:51.001Z,27.75
2022-09-04T12:21:18.938Z,27.63
2022-09-04T12:24:44.308Z,27.66
2022-09-04T12:28:20.297Z,27.86
2022-09-04T12:31:34.732Z,27.75
2022-09-04T12:35:10.610Z,27.67
2022-09-04T12:38:31.088Z,28.15
2022-09-04T12:41:54.595Z,28.25
2022-09-04T12:45:13.844Z,28.35
2022-09-04T12:48:37.176Z,28.22
2022-09-04T12:52:08.054Z,28.13
2022-09-04T12:55:33.399Z,27.93
2022-09-04T12:59:04.290Z,28.08
2022-09-04T13:02:27.435Z,28.23
2022-09-04T13:05:41.876Z,28.26
2022-09-04T13:09:04.127Z,27.96
2022-09-04T13:12:18.098Z,28.27
2022-09-04T13:15:58.428Z,27.96
2022-09-04T13:19:06.263Z,27.96
2022-09-04T13:22:37.332Z,27.91
2022-09-04T13:25:51.200Z,27.40
2022-09-04T13:29:15.347Z,28.31
2022-09-04T13:32:54.914Z,28.02
2022-09-04T13:36:05.845Z,27.92
2022-09-04T13:39:35.086Z,27.95
2022-09-04T13:42:52.507Z,27.79
2022-09-04T13:45:59.998Z,27.97
2022-09-04T13:49:07.050Z,28.13
2022-09-04T13:52:16.552Z,28.30
2022-09-04T13:55:23.201Z,28.43
2022-09-04T13:58:34.492Z,28.28
2022-09-04T14:01:42.322Z,28.29
2022-09-04T14:04:48.643Z,28.15
2022-09-04T14:08:02.369Z,28.34
2022-09-04T14:11:48.954Z,28.25
2022-09-04T14:15:06.276Z,28.62
2022-09-04T14:18:26.097Z,28.20
2022-09-04T14:21:44.361Z,28.09
2022-09-04T14:25:16.950Z,28.12
2022-09-04T14:28:57.756Z,27.98
2022-09-04T14:32:16.542Z,28.03
2022-09-04T14:35:35.786Z,28.04
2022-09-04T14:38:55.676Z,27.89
2022-09-04T14:42:32.191Z,27.67
2022-09-04T14:46:09.282Z,28.01
2022-09-04T14:49:16.803Z,28.55
2022-09-04T14:52:33.724Z,28.82
2022-09-04T14:56:01.302Z,28.67
2022-09-04T14:59:28.735Z,28.68
2022-09-04T15:02:40.959Z,28.85
2022-09-04T15:05:48.387Z,29.21
2022-09-04T15:08:50.836Z,28.81
2022-09-04T15:12:08.923Z,28.37
2022-09-04T15:15:30.081Z,27.82
2022-09-04T15:18:50.923Z,27.93
2022-09-04T15:22:05.044Z,27.79
2022-09-04T15:25:20.084Z,27.90
2022-09-04T15:28:33.908Z,27.96
2022-09-04T15:31:38.530Z,27.91
2022-09-04T15:34:40.968Z,27.74
2022-09-04T15:37:48.258Z,27.72
2022-09-04T15:41:17.745Z,27.69
2022-09-04T15:44:29.948Z,27.47
2022-09-04T15:47:56.750Z,27.04
2022-09-04T15:51:13.652Z,27.04
2022-09-04T15:54:18.380Z,26.81
2022-09-04T15:57:39.593Z,26.79
2022-09-04T16:01:01.740Z,26.86
2022-09-04T16:04:30.308Z,27.00
2022-09-04T16:07:42.212Z,27.04
2022-09-04T16:11:00.987Z,26.81
2022-09-04T16:14:08.005Z,26.73
2022-09-04T16:17:19.703Z,26.28
2022-09-04T16:20:33.553Z,26.29
2022-09-04T16:23:38.238Z,26.29
2022-09-04T16:26:40.275Z,26.23
2022-09-04T16:30:02.011Z,26.16
2022-09-04T16:33:20.550Z,26.12
2022-09-04T16:36:38.061Z,26.33
2022-09-04T16:39:58.940Z,26.56
2022-09-04T16:43:28.627Z,26.72
2022-09-04T16:46:34.630Z,26.58
2022-09-04T16:49:59.154Z,26.50
2022-09-04T16:53:17.827Z,26.25
2022-09-04T16:56:28.274Z,25.88
2022-09-04T16:59:53.926Z,25.60
2022-09-04T17:03:04.530Z,25.08
2022-09-04T17:06:18.130Z,24.78
2022-09-04T17:09:34.016Z,24.45
2022-09-04T17:12:44.914Z,24.25
2022-09-04T17:15:55.309Z,24.10
2022-09-04T17:18:57.573Z,23.86
2022-09-04T17:28:57.069Z,23.62
2022-09-04T17:29:10.105Z,23.38
2022-09-04T17:29:34.322Z,23.16
2022-09-04T17:36:11.133Z,23.02
2022-09-04T17:40:35.700Z,22.91
2022-09-04T17:40:49.542Z,22.69
2022-09-04T17:43:57.355Z,22.51
2022-09-04T17:47:19.470Z,22.38
2022-09-04T17:50:22.351Z,22.33
2022-09-04T17:53:34.339Z,22.36
2022-09-04T17:57:14.228Z,22.29
2022-09-04T18:00:28.013Z,22.22
2022-09-04T18:03:57.450Z,22.02
2022-09-04T18:08:08.409Z,21.71
2022-09-04T18:10:57.052Z,21.40
2022-09-04T18:14:09.062Z,21.21
2022-09-04T18:17:24.973Z,21.04
2022-09-04T18:20:43.224Z,20.87
2022-09-04T18:23:54.873Z,20.75
2022-09-04T18:27:14.934Z,20.55
2022-09-04T18:37:00.767Z,20.41
2022-09-04T18:37:26.027Z,20.31
2022-09-04T18:37:45.192Z,20.20
2022-09-04T18:43:59.466Z,20.11
2022-09-04T18:50:32.156Z,20.01
2022-09-04T18:50:39.226Z,19.91
2022-09-04T18:51:24.824Z,19.86
2022-09-04T18:54:39.035Z,19.73
2022-09-04T18:57:54.696Z,19.55
2022-09-04T19:01:11.821Z,19.41
2022-09-04T19:04:26.137Z,19.29
2022-09-04T19:07:34.290Z,19.18
2022-09-04T19:10:46.582Z,19.07
2022-09-04T19:14:10.414Z,18.94
2022-09-04T19:17:51.330Z,18.84
2022-09-04T19:21:09.989Z,18.73
2022-09-04T19:24:36.056Z,18.63
2022-09-04T19:27:45.601Z,18.55
2022-09-04T19:30:57.719Z,18.48
2022-09-04T19:34:10.953Z,18.45
2022-09-04T19:39:19.548Z,18.31
2022-09-04T19:46:11.847Z,18.13
2022-09-04T19:48:51.035Z,18.19
2022-09-04T19:53:36.107Z,18.04
2022-09-04T19:55:51.707Z,17.96
2022-09-04T19:59:16.401Z,17.88
2022-09-04T20:02:18.791Z,17.83
2022-09-04T20:05:27.623Z,17.76
2022-09-04T20:08:51.498Z,17.69
2022-09-04T20:12:40.433Z,17.63
2022-09-04T20:16:00.885Z,17.58
2022-09-04T20:19:07.031Z,17.52
2022-09-04T20:22:30.616Z,17.45
2022-09-04T20:25:45.200Z,17.43
2022-09-04T20:28:59.594Z,17.43
2022-09-04T20:32:11.936Z,17.43
2022-09-04T20:35:33.238Z,17.39
2022-09-04T20:39:00.029Z,17.39
2022-09-04T20:42:18.089Z,17.35
2022-09-04T20:47:46.279Z,17.26
2022-09-04T20:52:51.809Z,17.11
2022-09-04T20:52:53.306Z,17.20
2022-09-04T20:56:04.394Z,17.07
2022-09-04T21:03:11.237Z,17.01
2022-09-04T21:03:28.058Z,16.98
2022-09-04T21:06:38.557Z,17.02
2022-09-04T21:09:55.463Z,16.95
2022-09-04T21:13:13.978Z,16.92
2022-09-04T21:16:43.667Z,16.89
2022-09-04T21:20:02.704Z,16.86
2022-09-04T21:23:17.089Z,16.89
2022-09-04T21:26:41.780Z,16.87
2022-09-04T21:30:05.319Z,16.79
2022-09-04T21:33:27.898Z,16.67
2022-09-04T21:36:38.551Z,16.57
2022-09-04T21:39:56.273Z,16.56
2022-09-04T21:43:09.651Z,16.51
2022-09-04T21:46:39.490Z,16.50
2022-09-04T21:49:42.516Z,16.54
2022-09-04T21:53:16.395Z,16.48
2022-09-04T22:02:27.766Z,16.46
2022-09-04T22:02:40.790Z,16.43
2022-09-04T22:03:55.895Z,16.39
2022-09-04T22:13:26.391Z,16.39
2022-09-04T22:13:42.850Z,16.39
2022-09-04T22:14:51.771Z,16.33
2022-09-04T22:18:26.488Z,16.25
2022-09-04T22:22:09.940Z,16.22
2022-09-04T22:25:30.709Z,16.21
2022-09-04T22:28:50.435Z,16.14
2022-09-04T22:32:05.942Z,16.14
2022-09-04T22:35:50.726Z,16.11
2022-09-04T22:39:31.796Z,16.05
2022-09-04T22:42:52.109Z,16.05
2022-09-04T22:46:30.720Z,16.10
2022-09-04T22:49:47.532Z,16.12
2022-09-04T22:53:14.125Z,16.07
2022-09-04T22:56:28.993Z,16.03
2022-09-04T22:59:49.138Z,15.95
2022-09-04T23:03:10.953Z,15.93
2022-09-04T23:09:34.193Z,15.89
2022-09-04T23:13:48.349Z,15.86
2022-09-04T23:14:06.822Z,15.77
2022-09-04T23:17:24.524Z,15.72
2022-09-04T23:26:32.966Z,15.66
2022-09-04T23:26:43.936Z,15.55
2022-09-04T23:28:27.602Z,15.48
2022-09-04T23:31:56.099Z,15.46
2022-09-04T23:35:32.447Z,15.43
2022-09-04T23:38:56.364Z,15.33
2022-09-04T23:42:19.724Z,15.23
2022-09-04T23:45:27.440Z,15.15
2022-09-04T23:49:06.731Z,15.09
2022-09-04T23:52:28.472Z,15.02
2022-09-04T23:55:50.026Z,15.00
2022-09-04T23:59:12.601Z,14.92
